SBOSBO KRK / EPKK
Speedbird OnlineSpeedbird Online KRK / EPKK

Kraków John Paul II International Airport
01:30 -8.2°C

Location Krakow, Poland
Latitude: 50.077702
Longitude: 19.7848
Web Airport Website | Wikipedia
Altitude 241 Meter / 791 Feet
Distance 1,387 KM / 862 Miles
from London.
Time Zone UTC +1 hours (Europe/Warsaw)
Codes IATA: KRK
ICAO: EPKK
Currency £1 equals PLN 5.33
Runways
RunwayLength (m)Surface
072550Concrete
252550Concrete
Radio
TypeDescriptionFrequency
APPKRAKOW APP121.075
ATISATIS126.125
DIRKRAKOW DIRECTOR123.8
TWRKRAKOW DELIVERY118.1
TWRKRAKOW TWR123.25
Live ATC
METAR EPKK 081430Z 05007KT 9999 FEW025 M00/M05 Q1043
TAF TAF EPKK 081430Z 0815/0915 06008KT CAVOK TEMPO 0821/0908 4000 BR PROB30 TEMPO 0902/0907 1200 BR BKN004
Weather As Of 09 Feb 2023 01:30
Description Mist
Wind 2 km/h from North (0°)
Cloud Cover 50%
Precipitation Rain: none, Snow: none
Sunrise 07:03
Sunset 16:47
Lounges Business Lounge Schengen, Terminal 1
Rotations During the last 90 days there were
59 flights from LHR
59 flights to LHR



Support Speedbird Online

© 2017-2023 Speedbird Online